sensor_id;sensor_type;location;lat;lon;timestamp;P1;durP1;ratioP1;P2;durP2;ratioP2
44328;SDS011;30039;51.462;6.892;2022-10-16T00:01:42;4.68;;;2.20;;
44328;SDS011;30039;51.462;6.892;2022-10-16T00:04:27;6.43;;;2.53;;
44328;SDS011;30039;51.462;6.892;2022-10-16T00:07:14;5.32;;;2.33;;
44328;SDS011;30039;51.462;6.892;2022-10-16T00:10:00;8.10;;;2.30;;
44328;SDS011;30039;51.462;6.892;2022-10-16T00:12:46;3.70;;;2.10;;
44328;SDS011;30039;51.462;6.892;2022-10-16T00:15:33;5.18;;;2.10;;
44328;SDS011;30039;51.462;6.892;2022-10-16T00:18:21;6.00;;;1.98;;
44328;SDS011;30039;51.462;6.892;2022-10-16T00:21:40;3.40;;;2.00;;
44328;SDS011;30039;51.462;6.892;2022-10-16T00:24:20;4.28;;;2.03;;
44328;SDS011;30039;51.462;6.892;2022-10-16T00:27:05;3.80;;;2.22;;
44328;SDS011;30039;51.462;6.892;2022-10-16T00:29:51;5.65;;;2.08;;
44328;SDS011;30039;51.462;6.892;2022-10-16T00:32:37;3.30;;;2.15;;
44328;SDS011;30039;51.462;6.892;2022-10-16T00:35:23;5.20;;;2.05;;
44328;SDS011;30039;51.462;6.892;2022-10-16T00:38:09;4.40;;;1.83;;
44328;SDS011;30039;51.462;6.892;2022-10-16T00:40:55;4.70;;;2.05;;
44328;SDS011;30039;51.462;6.892;2022-10-16T00:43:44;9.70;;;2.22;;
44328;SDS011;30039;51.462;6.892;2022-10-16T00:49:19;2.85;;;1.85;;
44328;SDS011;30039;51.462;6.892;2022-10-16T00:52:05;2.78;;;1.95;;
44328;SDS011;30039;51.462;6.892;2022-10-16T00:54:51;4.43;;;2.00;;
44328;SDS011;30039;51.462;6.892;2022-10-16T00:57:38;4.15;;;1.92;;
44328;SDS011;30039;51.462;6.892;2022-10-16T01:00:26;6.78;;;2.53;;
44328;SDS011;30039;51.462;6.892;2022-10-16T01:03:31;7.15;;;2.20;;
44328;SDS011;30039;51.462;6.892;2022-10-16T01:06:24;3.70;;;1.90;;
44328;SDS011;30039;51.462;6.892;2022-10-16T01:09:23;3.15;;;1.67;;
44328;SDS011;30039;51.462;6.892;2022-10-16T01:12:15;2.40;;;1.63;;
44328;SDS011;30039;51.462;6.892;2022-10-16T01:15:10;6.03;;;1.85;;
44328;SDS011;30039;51.462;6.892;2022-10-16T01:18:00;3.45;;;1.70;;
44328;SDS011;30039;51.462;6.892;2022-10-16T01:32:45;3.85;;;1.63;;
44328;SDS011;30039;51.462;6.892;2022-10-16T01:35:36;2.43;;;1.53;;
44328;SDS011;30039;51.462;6.892;2022-10-16T01:38:25;4.47;;;1.90;;
44328;SDS011;30039;51.462;6.892;2022-10-16T01:41:14;3.10;;;1.52;;
44328;SDS011;30039;51.462;6.892;2022-10-16T01:46:50;2.63;;;1.38;;
44328;SDS011;30039;51.462;6.892;2022-10-16T01:49:38;3.80;;;1.55;;
44328;SDS011;30039;51.462;6.892;2022-10-16T01:52:24;4.85;;;1.75;;
44328;SDS011;30039;51.462;6.892;2022-10-16T01:55:14;5.65;;;1.75;;
44328;SDS011;30039;51.462;6.892;2022-10-16T01:58:00;2.08;;;1.30;;
44328;SDS011;30039;51.462;6.892;2022-10-16T02:00:48;2.40;;;1.48;;
44328;SDS011;30039;51.462;6.892;2022-10-16T02:03:34;2.35;;;1.40;;
44328;SDS011;30039;51.462;6.892;2022-10-16T02:06:20;2.35;;;1.40;;
44328;SDS011;30039;51.462;6.892;2022-10-16T02:09:06;2.78;;;1.30;;
44328;SDS011;30039;51.462;6.892;2022-10-16T02:11:52;4.25;;;1.58;;
44328;SDS011;30039;51.462;6.892;2022-10-16T02:14:39;2.22;;;1.30;;
44328;SDS011;30039;51.462;6.892;2022-10-16T02:17:25;4.28;;;1.48;;
44328;SDS011;30039;51.462;6.892;2022-10-16T02:20:11;1.95;;;1.10;;
44328;SDS011;30039;51.462;6.892;2022-10-16T02:22:57;1.73;;;1.10;;
44328;SDS011;30039;51.462;6.892;2022-10-16T02:25:43;3.58;;;1.40;;
44328;SDS011;30039;51.462;6.892;2022-10-16T02:28:36;2.42;;;1.30;;
44328;SDS011;30039;51.462;6.892;2022-10-16T02:31:25;6.18;;;1.27;;
44328;SDS011;30039;51.462;6.892;2022-10-16T02:34:13;4.47;;;1.40;;
44328;SDS011;30039;51.462;6.892;2022-10-16T02:37:00;4.47;;;1.30;;
44328;SDS011;30039;51.462;6.892;2022-10-16T02:39:46;2.67;;;1.20;;
44328;SDS011;30039;51.462;6.892;2022-10-16T02:42:33;3.25;;;1.42;;
44328;SDS011;30039;51.462;6.892;2022-10-16T02:45:19;2.47;;;1.10;;
44328;SDS011;30039;51.462;6.892;2022-10-16T02:48:06;2.25;;;1.17;;
44328;SDS011;30039;51.462;6.892;2022-10-16T02:50:52;2.05;;;1.27;;
44328;SDS011;30039;51.462;6.892;2022-10-16T02:53:37;4.28;;;1.55;;
44328;SDS011;30039;51.462;6.892;2022-10-16T02:56:23;4.72;;;1.08;;
44328;SDS011;30039;51.462;6.892;2022-10-16T02:59:10;2.03;;;1.15;;
44328;SDS011;30039;51.462;6.892;2022-10-16T03:01:56;2.90;;;1.10;;
44328;SDS011;30039;51.462;6.892;2022-10-16T03:04:41;2.80;;;1.20;;
44328;SDS011;30039;51.462;6.892;2022-10-16T03:07:34;1.15;;;0.98;;
44328;SDS011;30039;51.462;6.892;2022-10-16T03:10:20;2.33;;;1.10;;
44328;SDS011;30039;51.462;6.892;2022-10-16T03:13:06;2.28;;;1.10;;
44328;SDS011;30039;51.462;6.892;2022-10-16T03:15:51;4.05;;;1.20;;
44328;SDS011;30039;51.462;6.892;2022-10-16T03:18:37;2.15;;;1.30;;
44328;SDS011;30039;51.462;6.892;2022-10-16T03:21:23;1.98;;;1.30;;
44328;SDS011;30039;51.462;6.892;2022-10-16T03:24:09;1.58;;;0.90;;
44328;SDS011;30039;51.462;6.892;2022-10-16T03:26:55;1.30;;;1.00;;
44328;SDS011;30039;51.462;6.892;2022-10-16T03:29:41;2.13;;;1.13;;
44328;SDS011;30039;51.462;6.892;2022-10-16T03:32:26;1.75;;;1.08;;
44328;SDS011;30039;51.462;6.892;2022-10-16T03:35:13;1.65;;;1.00;;
44328;SDS011;30039;51.462;6.892;2022-10-16T03:38:00;3.83;;;1.33;;
44328;SDS011;30039;51.462;6.892;2022-10-16T03:40:46;3.08;;;1.08;;
44328;SDS011;30039;51.462;6.892;2022-10-16T03:43:31;3.45;;;1.20;;
44328;SDS011;30039;51.462;6.892;2022-10-16T03:46:17;1.35;;;0.93;;
44328;SDS011;30039;51.462;6.892;2022-10-16T03:49:03;1.58;;;1.10;;
44328;SDS011;30039;51.462;6.892;2022-10-16T03:51:49;3.17;;;1.20;;
44328;SDS011;30039;51.462;6.892;2022-10-16T03:54:35;2.95;;;1.20;;
44328;SDS011;30039;51.462;6.892;2022-10-16T03:57:21;3.45;;;0.95;;
44328;SDS011;30039;51.462;6.892;2022-10-16T04:00:07;1.55;;;1.02;;
44328;SDS011;30039;51.462;6.892;2022-10-16T04:02:53;1.67;;;1.17;;
44328;SDS011;30039;51.462;6.892;2022-10-16T04:05:38;3.50;;;1.30;;
44328;SDS011;30039;51.462;6.892;2022-10-16T04:08:24;1.73;;;1.10;;
44328;SDS011;30039;51.462;6.892;2022-10-16T04:11:10;1.60;;;1.10;;
44328;SDS011;30039;51.462;6.892;2022-10-16T04:13:55;1.42;;;0.90;;
44328;SDS011;30039;51.462;6.892;2022-10-16T04:16:41;1.83;;;0.90;;
44328;SDS011;30039;51.462;6.892;2022-10-16T04:19:28;4.60;;;1.50;;
44328;SDS011;30039;51.462;6.892;2022-10-16T04:22:14;1.88;;;1.23;;
44328;SDS011;30039;51.462;6.892;2022-10-16T04:24:59;2.33;;;1.30;;
44328;SDS011;30039;51.462;6.892;2022-10-16T04:27:45;2.78;;;1.30;;
44328;SDS011;30039;51.462;6.892;2022-10-16T04:30:30;1.40;;;1.00;;
44328;SDS011;30039;51.462;6.892;2022-10-16T04:33:17;5.32;;;1.52;;
44328;SDS011;30039;51.462;6.892;2022-10-16T04:36:03;2.80;;;1.25;;
44328;SDS011;30039;51.462;6.892;2022-10-16T04:38:49;1.77;;;1.10;;
44328;SDS011;30039;51.462;6.892;2022-10-16T04:41:34;2.65;;;1.20;;
44328;SDS011;30039;51.462;6.892;2022-10-16T04:44:20;3.00;;;1.30;;
44328;SDS011;30039;51.462;6.892;2022-10-16T04:47:06;1.83;;;1.23;;
44328;SDS011;30039;51.462;6.892;2022-10-16T04:49:51;3.20;;;1.40;;
44328;SDS011;30039;51.462;6.892;2022-10-16T04:52:37;4.10;;;1.77;;
44328;SDS011;30039;51.462;6.892;2022-10-16T04:55:23;2.10;;;1.13;;
44328;SDS011;30039;51.462;6.892;2022-10-16T04:58:08;3.58;;;1.25;;
44328;SDS011;30039;51.462;6.892;2022-10-16T05:00:54;3.25;;;1.05;;
44328;SDS011;30039;51.462;6.892;2022-10-16T05:03:40;1.88;;;1.17;;
44328;SDS011;30039;51.462;6.892;2022-10-16T05:06:26;2.65;;;1.25;;
44328;SDS011;30039;51.462;6.892;2022-10-16T05:09:11;1.98;;;1.20;;
44328;SDS011;30039;51.462;6.892;2022-10-16T05:11:57;1.35;;;1.10;;
44328;SDS011;30039;51.462;6.892;2022-10-16T05:14:43;2.53;;;1.15;;
44328;SDS011;30039;51.462;6.892;2022-10-16T05:17:28;4.85;;;1.10;;
44328;SDS011;30039;51.462;6.892;2022-10-16T05:20:14;1.92;;;1.15;;
44328;SDS011;30039;51.462;6.892;2022-10-16T05:22:59;1.88;;;1.17;;
44328;SDS011;30039;51.462;6.892;2022-10-16T05:25:56;5.57;;;1.45;;
44328;SDS011;30039;51.462;6.892;2022-10-16T05:28:43;3.13;;;1.25;;
44328;SDS011;30039;51.462;6.892;2022-10-16T05:31:29;1.52;;;1.10;;
44328;SDS011;30039;51.462;6.892;2022-10-16T05:34:14;1.30;;;1.00;;
44328;SDS011;30039;51.462;6.892;2022-10-16T05:37:00;3.08;;;1.00;;
44328;SDS011;30039;51.462;6.892;2022-10-16T05:39:46;2.83;;;1.30;;
44328;SDS011;30039;51.462;6.892;2022-10-16T05:42:32;2.38;;;1.30;;
44328;SDS011;30039;51.462;6.892;2022-10-16T05:45:18;2.67;;;1.40;;
44328;SDS011;30039;51.462;6.892;2022-10-16T05:48:04;2.03;;;1.17;;
44328;SDS011;30039;51.462;6.892;2022-10-16T05:50:59;1.40;;;1.17;;
44328;SDS011;30039;51.462;6.892;2022-10-16T05:53:45;2.13;;;1.40;;
44328;SDS011;30039;51.462;6.892;2022-10-16T05:56:31;2.47;;;1.05;;
44328;SDS011;30039;51.462;6.892;2022-10-16T05:59:16;4.47;;;1.23;;
44328;SDS011;30039;51.462;6.892;2022-10-16T06:02:02;2.63;;;1.20;;
44328;SDS011;30039;51.462;6.892;2022-10-16T06:04:48;2.40;;;1.20;;
44328;SDS011;30039;51.462;6.892;2022-10-16T06:07:34;2.38;;;1.30;;
44328;SDS011;30039;51.462;6.892;2022-10-16T06:10:21;2.60;;;1.08;;
44328;SDS011;30039;51.462;6.892;2022-10-16T06:13:06;5.00;;;1.40;;
44328;SDS011;30039;51.462;6.892;2022-10-16T06:15:52;1.48;;;1.17;;
44328;SDS011;30039;51.462;6.892;2022-10-16T06:18:38;2.20;;;1.10;;
44328;SDS011;30039;51.462;6.892;2022-10-16T06:21:24;1.58;;;1.08;;
44328;SDS011;30039;51.462;6.892;2022-10-16T06:24:10;2.58;;;1.48;;
44328;SDS011;30039;51.462;6.892;2022-10-16T06:26:56;4.93;;;1.58;;
44328;SDS011;30039;51.462;6.892;2022-10-16T06:29:41;2.92;;;1.42;;
44328;SDS011;30039;51.462;6.892;2022-10-16T06:32:28;2.03;;;1.20;;
44328;SDS011;30039;51.462;6.892;2022-10-16T06:35:15;2.30;;;1.35;;
44328;SDS011;30039;51.462;6.892;2022-10-16T06:38:01;2.70;;;1.08;;
44328;SDS011;30039;51.462;6.892;2022-10-16T06:40:46;1.60;;;1.20;;
44328;SDS011;30039;51.462;6.892;2022-10-16T06:43:33;3.42;;;1.42;;
44328;SDS011;30039;51.462;6.892;2022-10-16T06:46:23;3.67;;;1.20;;
44328;SDS011;30039;51.462;6.892;2022-10-16T06:49:09;2.90;;;1.42;;
44328;SDS011;30039;51.462;6.892;2022-10-16T06:51:54;1.88;;;1.30;;
44328;SDS011;30039;51.462;6.892;2022-10-16T06:54:58;3.10;;;1.20;;
44328;SDS011;30039;51.462;6.892;2022-10-16T06:58:04;4.63;;;1.48;;
44328;SDS011;30039;51.462;6.892;2022-10-16T07:01:01;1.67;;;1.20;;
44328;SDS011;30039;51.462;6.892;2022-10-16T07:03:47;1.85;;;1.23;;
44328;SDS011;30039;51.462;6.892;2022-10-16T07:06:33;2.45;;;1.30;;
44328;SDS011;30039;51.462;6.892;2022-10-16T07:09:19;1.98;;;1.20;;
44328;SDS011;30039;51.462;6.892;2022-10-16T07:12:05;2.20;;;1.40;;
44328;SDS011;30039;51.462;6.892;2022-10-16T07:14:50;2.58;;;1.30;;
44328;SDS011;30039;51.462;6.892;2022-10-16T07:17:37;3.28;;;1.50;;
44328;SDS011;30039;51.462;6.892;2022-10-16T07:20:23;2.03;;;1.10;;
44328;SDS011;30039;51.462;6.892;2022-10-16T07:23:09;3.47;;;1.27;;
44328;SDS011;30039;51.462;6.892;2022-10-16T07:25:55;4.50;;;1.42;;
44328;SDS011;30039;51.462;6.892;2022-10-16T07:28:40;2.67;;;1.40;;
44328;SDS011;30039;51.462;6.892;2022-10-16T07:31:27;3.08;;;1.27;;
44328;SDS011;30039;51.462;6.892;2022-10-16T07:34:13;4.18;;;1.38;;
44328;SDS011;30039;51.462;6.892;2022-10-16T07:37:00;2.45;;;1.40;;
44328;SDS011;30039;51.462;6.892;2022-10-16T07:39:45;4.05;;;1.70;;
44328;SDS011;30039;51.462;6.892;2022-10-16T07:42:31;2.15;;;1.10;;
44328;SDS011;30039;51.462;6.892;2022-10-16T07:45:33;2.30;;;1.17;;
44328;SDS011;30039;51.462;6.892;2022-10-16T07:48:19;2.70;;;1.23;;
44328;SDS011;30039;51.462;6.892;2022-10-16T07:51:05;2.55;;;1.42;;
44328;SDS011;30039;51.462;6.892;2022-10-16T07:53:51;3.63;;;1.55;;
44328;SDS011;30039;51.462;6.892;2022-10-16T07:56:37;4.30;;;1.30;;
44328;SDS011;30039;51.462;6.892;2022-10-16T07:59:23;2.40;;;1.20;;
44328;SDS011;30039;51.462;6.892;2022-10-16T08:02:09;3.67;;;1.10;;
44328;SDS011;30039;51.462;6.892;2022-10-16T08:04:54;4.95;;;1.20;;
44328;SDS011;30039;51.462;6.892;2022-10-16T08:07:40;1.33;;;0.90;;
44328;SDS011;30039;51.462;6.892;2022-10-16T08:10:28;2.97;;;1.30;;
44328;SDS011;30039;51.462;6.892;2022-10-16T08:13:14;2.47;;;1.02;;
44328;SDS011;30039;51.462;6.892;2022-10-16T08:16:00;2.17;;;1.08;;
44328;SDS011;30039;51.462;6.892;2022-10-16T08:18:46;1.90;;;1.05;;
44328;SDS011;30039;51.462;6.892;2022-10-16T08:21:33;1.83;;;1.00;;
44328;SDS011;30039;51.462;6.892;2022-10-16T08:24:19;1.58;;;0.85;;
44328;SDS011;30039;51.462;6.892;2022-10-16T08:27:04;3.90;;;0.82;;
44328;SDS011;30039;51.462;6.892;2022-10-16T08:29:50;1.40;;;1.00;;
44328;SDS011;30039;51.462;6.892;2022-10-16T08:32:36;1.88;;;1.10;;
44328;SDS011;30039;51.462;6.892;2022-10-16T08:35:21;2.05;;;0.80;;
44328;SDS011;30039;51.462;6.892;2022-10-16T08:38:07;3.05;;;0.85;;
44328;SDS011;30039;51.462;6.892;2022-10-16T08:40:53;4.30;;;1.10;;
44328;SDS011;30039;51.462;6.892;2022-10-16T08:50:29;4.20;;;1.05;;
44328;SDS011;30039;51.462;6.892;2022-10-16T08:53:39;1.80;;;0.93;;
44328;SDS011;30039;51.462;6.892;2022-10-16T08:56:22;1.85;;;1.00;;
44328;SDS011;30039;51.462;6.892;2022-10-16T08:59:10;5.40;;;2.45;;
44328;SDS011;30039;51.462;6.892;2022-10-16T09:01:56;3.83;;;1.73;;
44328;SDS011;30039;51.462;6.892;2022-10-16T09:13:21;2.33;;;1.17;;
44328;SDS011;30039;51.462;6.892;2022-10-16T09:16:13;4.97;;;1.20;;
44328;SDS011;30039;51.462;6.892;2022-10-16T09:22:15;5.35;;;1.55;;
44328;SDS011;30039;51.462;6.892;2022-10-16T09:25:10;3.05;;;1.20;;
44328;SDS011;30039;51.462;6.892;2022-10-16T09:27:56;4.22;;;1.58;;
44328;SDS011;30039;51.462;6.892;2022-10-16T09:30:42;3.75;;;2.20;;
44328;SDS011;30039;51.462;6.892;2022-10-16T09:33:29;8.10;;;2.30;;
44328;SDS011;30039;51.462;6.892;2022-10-16T09:36:15;2.72;;;1.10;;
44328;SDS011;30039;51.462;6.892;2022-10-16T09:39:06;1.35;;;1.05;;
44328;SDS011;30039;51.462;6.892;2022-10-16T09:41:52;3.60;;;1.00;;
44328;SDS011;30039;51.462;6.892;2022-10-16T09:44:38;2.28;;;1.00;;
44328;SDS011;30039;51.462;6.892;2022-10-16T09:47:25;4.50;;;1.10;;
44328;SDS011;30039;51.462;6.892;2022-10-16T09:50:27;2.42;;;1.13;;
44328;SDS011;30039;51.462;6.892;2022-10-16T09:53:14;3.35;;;1.00;;
44328;SDS011;30039;51.462;6.892;2022-10-16T09:55:59;2.10;;;1.10;;
44328;SDS011;30039;51.462;6.892;2022-10-16T09:58:49;2.97;;;1.70;;
44328;SDS011;30039;51.462;6.892;2022-10-16T10:01:36;1.63;;;0.93;;
44328;SDS011;30039;51.462;6.892;2022-10-16T10:04:23;4.10;;;1.20;;
44328;SDS011;30039;51.462;6.892;2022-10-16T10:07:44;1.63;;;1.08;;
44328;SDS011;30039;51.462;6.892;2022-10-16T10:10:24;4.82;;;1.10;;
44328;SDS011;30039;51.462;6.892;2022-10-16T10:13:21;1.20;;;0.65;;
44328;SDS011;30039;51.462;6.892;2022-10-16T10:16:07;1.73;;;0.98;;
44328;SDS011;30039;51.462;6.892;2022-10-16T10:18:59;1.23;;;0.77;;
44328;SDS011;30039;51.462;6.892;2022-10-16T10:21:45;2.40;;;0.80;;
44328;SDS011;30039;51.462;6.892;2022-10-16T10:24:31;1.90;;;0.95;;
44328;SDS011;30039;51.462;6.892;2022-10-16T10:27:17;1.58;;;0.80;;
44328;SDS011;30039;51.462;6.892;2022-10-16T10:36:12;1.52;;;0.90;;
44328;SDS011;30039;51.462;6.892;2022-10-16T10:39:00;2.70;;;1.02;;
44328;SDS011;30039;51.462;6.892;2022-10-16T10:48:05;1.00;;;0.80;;
44328;SDS011;30039;51.462;6.892;2022-10-16T10:53:36;6.68;;;1.00;;
44328;SDS011;30039;51.462;6.892;2022-10-16T10:57:07;3.10;;;0.98;;
44328;SDS011;30039;51.462;6.892;2022-10-16T11:05:27;1.75;;;0.73;;
44328;SDS011;30039;51.462;6.892;2022-10-16T11:08:21;2.33;;;0.85;;
44328;SDS011;30039;51.462;6.892;2022-10-16T11:11:20;0.77;;;0.50;;
44328;SDS011;30039;51.462;6.892;2022-10-16T11:20:26;3.45;;;0.90;;
44328;SDS011;30039;51.462;6.892;2022-10-16T11:23:17;5.88;;;0.85;;
44328;SDS011;30039;51.462;6.892;2022-10-16T11:26:04;2.33;;;0.88;;
44328;SDS011;30039;51.462;6.892;2022-10-16T11:28:54;1.90;;;0.80;;
44328;SDS011;30039;51.462;6.892;2022-10-16T11:31:49;2.22;;;1.00;;
44328;SDS011;30039;51.462;6.892;2022-10-16T11:37:43;3.45;;;1.15;;
44328;SDS011;30039;51.462;6.892;2022-10-16T11:40:33;1.40;;;0.90;;
44328;SDS011;30039;51.462;6.892;2022-10-16T11:43:31;4.07;;;1.13;;
44328;SDS011;30039;51.462;6.892;2022-10-16T11:46:19;2.35;;;1.08;;
44328;SDS011;30039;51.462;6.892;2022-10-16T11:49:11;3.17;;;1.23;;
44328;SDS011;30039;51.462;6.892;2022-10-16T11:54:49;2.65;;;1.27;;
44328;SDS011;30039;51.462;6.892;2022-10-16T11:57:42;3.70;;;1.05;;
44328;SDS011;30039;51.462;6.892;2022-10-16T12:00:39;2.10;;;1.30;;
44328;SDS011;30039;51.462;6.892;2022-10-16T12:09:24;2.70;;;1.20;;
44328;SDS011;30039;51.462;6.892;2022-10-16T12:15:20;3.22;;;0.85;;
44328;SDS011;30039;51.462;6.892;2022-10-16T12:18:07;1.67;;;0.90;;
44328;SDS011;30039;51.462;6.892;2022-10-16T12:20:59;4.82;;;0.93;;
44328;SDS011;30039;51.462;6.892;2022-10-16T12:23:51;2.88;;;0.98;;
44328;SDS011;30039;51.462;6.892;2022-10-16T12:26:38;2.38;;;0.93;;
44328;SDS011;30039;51.462;6.892;2022-10-16T12:32:38;2.55;;;1.10;;
44328;SDS011;30039;51.462;6.892;2022-10-16T12:35:26;4.15;;;1.10;;
44328;SDS011;30039;51.462;6.892;2022-10-16T12:38:17;3.38;;;1.27;;
44328;SDS011;30039;51.462;6.892;2022-10-16T12:41:05;3.33;;;1.20;;
44328;SDS011;30039;51.462;6.892;2022-10-16T12:43:52;5.38;;;1.17;;
44328;SDS011;30039;51.462;6.892;2022-10-16T12:46:38;2.58;;;1.05;;
44328;SDS011;30039;51.462;6.892;2022-10-16T12:52:26;3.13;;;1.60;;
44328;SDS011;30039;51.462;6.892;2022-10-16T12:55:16;2.95;;;1.40;;
44328;SDS011;30039;51.462;6.892;2022-10-16T12:58:09;2.38;;;0.80;;
44328;SDS011;30039;51.462;6.892;2022-10-16T13:01:02;4.05;;;0.85;;
44328;SDS011;30039;51.462;6.892;2022-10-16T13:03:56;2.63;;;0.98;;
44328;SDS011;30039;51.462;6.892;2022-10-16T13:09:39;2.65;;;0.70;;
44328;SDS011;30039;51.462;6.892;2022-10-16T13:23:40;2.17;;;1.08;;
44328;SDS011;30039;51.462;6.892;2022-10-16T13:32:18;2.67;;;1.33;;
44328;SDS011;30039;51.462;6.892;2022-10-16T13:35:18;1.77;;;0.82;;
44328;SDS011;30039;51.462;6.892;2022-10-16T13:38:14;5.03;;;1.92;;
44328;SDS011;30039;51.462;6.892;2022-10-16T13:41:02;2.92;;;1.02;;
44328;SDS011;30039;51.462;6.892;2022-10-16T13:43:49;2.58;;;0.70;;
44328;SDS011;30039;51.462;6.892;2022-10-16T13:46:36;4.13;;;1.08;;
44328;SDS011;30039;51.462;6.892;2022-10-16T13:49:21;1.80;;;0.95;;
44328;SDS011;30039;51.462;6.892;2022-10-16T13:52:15;3.53;;;0.70;;
44328;SDS011;30039;51.462;6.892;2022-10-16T13:55:02;2.67;;;1.00;;
44328;SDS011;30039;51.462;6.892;2022-10-16T13:57:48;3.92;;;1.67;;
44328;SDS011;30039;51.462;6.892;2022-10-16T14:00:33;1.92;;;0.90;;
44328;SDS011;30039;51.462;6.892;2022-10-16T14:03:20;3.25;;;0.75;;
44328;SDS011;30039;51.462;6.892;2022-10-16T14:06:06;2.28;;;0.70;;
44328;SDS011;30039;51.462;6.892;2022-10-16T14:09:01;3.28;;;1.00;;
44328;SDS011;30039;51.462;6.892;2022-10-16T14:11:48;2.85;;;1.02;;
44328;SDS011;30039;51.462;6.892;2022-10-16T14:14:35;1.65;;;0.80;;
44328;SDS011;30039;51.462;6.892;2022-10-16T14:17:27;4.03;;;1.50;;
44328;SDS011;30039;51.462;6.892;2022-10-16T14:20:14;2.55;;;1.00;;
44328;SDS011;30039;51.462;6.892;2022-10-16T14:23:03;1.33;;;0.90;;
44328;SDS011;30039;51.462;6.892;2022-10-16T14:25:49;2.40;;;0.85;;
44328;SDS011;30039;51.462;6.892;2022-10-16T14:28:37;2.05;;;1.38;;
44328;SDS011;30039;51.462;6.892;2022-10-16T14:31:30;2.35;;;0.95;;
44328;SDS011;30039;51.462;6.892;2022-10-16T14:34:23;2.95;;;1.08;;
44328;SDS011;30039;51.462;6.892;2022-10-16T14:37:26;1.15;;;0.68;;
44328;SDS011;30039;51.462;6.892;2022-10-16T14:40:14;6.88;;;3.92;;
44328;SDS011;30039;51.462;6.892;2022-10-16T14:43:03;2.97;;;1.25;;
44328;SDS011;30039;51.462;6.892;2022-10-16T14:45:51;2.15;;;0.90;;
44328;SDS011;30039;51.462;6.892;2022-10-16T14:48:42;2.38;;;0.80;;
44328;SDS011;30039;51.462;6.892;2022-10-16T14:51:28;2.20;;;0.85;;
44328;SDS011;30039;51.462;6.892;2022-10-16T14:54:15;2.42;;;1.30;;
44328;SDS011;30039;51.462;6.892;2022-10-16T14:57:01;5.55;;;2.00;;
44328;SDS011;30039;51.462;6.892;2022-10-16T14:59:47;4.93;;;1.40;;
44328;SDS011;30039;51.462;6.892;2022-10-16T15:02:35;2.28;;;1.42;;
44328;SDS011;30039;51.462;6.892;2022-10-16T15:05:25;4.53;;;1.08;;
44328;SDS011;30039;51.462;6.892;2022-10-16T15:08:12;2.83;;;0.90;;
44328;SDS011;30039;51.462;6.892;2022-10-16T15:10:58;15.73;;;7.15;;
44328;SDS011;30039;51.462;6.892;2022-10-16T15:13:44;4.95;;;2.85;;
44328;SDS011;30039;51.462;6.892;2022-10-16T15:16:30;1.85;;;0.90;;
44328;SDS011;30039;51.462;6.892;2022-10-16T15:19:16;4.78;;;2.15;;
44328;SDS011;30039;51.462;6.892;2022-10-16T15:22:02;6.28;;;3.85;;
44328;SDS011;30039;51.462;6.892;2022-10-16T15:24:47;5.95;;;3.40;;
44328;SDS011;30039;51.462;6.892;2022-10-16T15:27:33;3.35;;;1.55;;
44328;SDS011;30039;51.462;6.892;2022-10-16T15:30:27;3.47;;;1.50;;
44328;SDS011;30039;51.462;6.892;2022-10-16T15:33:17;3.05;;;1.90;;
44328;SDS011;30039;51.462;6.892;2022-10-16T15:36:03;6.00;;;3.70;;
44328;SDS011;30039;51.462;6.892;2022-10-16T15:38:48;10.02;;;6.22;;
44328;SDS011;30039;51.462;6.892;2022-10-16T15:41:34;22.98;;;13.88;;
44328;SDS011;30039;51.462;6.892;2022-10-16T15:44:20;11.82;;;6.93;;
44328;SDS011;30039;51.462;6.892;2022-10-16T15:47:07;9.45;;;6.57;;
44328;SDS011;30039;51.462;6.892;2022-10-16T15:49:53;14.55;;;9.07;;
44328;SDS011;30039;51.462;6.892;2022-10-16T15:52:39;9.40;;;6.30;;
44328;SDS011;30039;51.462;6.892;2022-10-16T15:55:25;6.05;;;1.98;;
44328;SDS011;30039;51.462;6.892;2022-10-16T15:58:11;3.35;;;2.00;;
44328;SDS011;30039;51.462;6.892;2022-10-16T16:00:57;3.38;;;1.23;;
44328;SDS011;30039;51.462;6.892;2022-10-16T16:03:43;2.35;;;1.42;;
44328;SDS011;30039;51.462;6.892;2022-10-16T16:06:29;2.78;;;1.40;;
44328;SDS011;30039;51.462;6.892;2022-10-16T16:09:15;4.80;;;1.40;;
44328;SDS011;30039;51.462;6.892;2022-10-16T16:12:01;3.45;;;1.15;;
44328;SDS011;30039;51.462;6.892;2022-10-16T16:14:47;4.10;;;1.52;;
44328;SDS011;30039;51.462;6.892;2022-10-16T16:17:34;6.53;;;1.92;;
44328;SDS011;30039;51.462;6.892;2022-10-16T16:20:20;2.65;;;1.58;;
44328;SDS011;30039;51.462;6.892;2022-10-16T16:23:06;2.42;;;1.67;;
44328;SDS011;30039;51.462;6.892;2022-10-16T16:28:53;3.70;;;1.73;;
44328;SDS011;30039;51.462;6.892;2022-10-16T16:31:39;5.38;;;2.67;;
44328;SDS011;30039;51.462;6.892;2022-10-16T16:34:26;2.50;;;1.75;;
44328;SDS011;30039;51.462;6.892;2022-10-16T16:37:12;4.38;;;1.90;;
44328;SDS011;30039;51.462;6.892;2022-10-16T16:39:58;3.47;;;2.08;;
44328;SDS011;30039;51.462;6.892;2022-10-16T16:42:44;6.35;;;2.08;;
44328;SDS011;30039;51.462;6.892;2022-10-16T16:45:30;4.70;;;2.70;;
44328;SDS011;30039;51.462;6.892;2022-10-16T16:48:15;4.25;;;2.22;;
44328;SDS011;30039;51.462;6.892;2022-10-16T16:51:09;3.95;;;2.28;;
44328;SDS011;30039;51.462;6.892;2022-10-16T16:53:57;6.50;;;2.47;;
44328;SDS011;30039;51.462;6.892;2022-10-16T16:56:42;5.78;;;2.00;;
44328;SDS011;30039;51.462;6.892;2022-10-16T16:59:28;4.75;;;1.90;;
44328;SDS011;30039;51.462;6.892;2022-10-16T17:02:17;5.47;;;1.90;;
44328;SDS011;30039;51.462;6.892;2022-10-16T17:05:03;3.15;;;1.83;;
44328;SDS011;30039;51.462;6.892;2022-10-16T17:07:49;4.35;;;2.35;;
44328;SDS011;30039;51.462;6.892;2022-10-16T17:10:41;4.60;;;1.85;;
44328;SDS011;30039;51.462;6.892;2022-10-16T17:13:29;3.10;;;1.50;;
44328;SDS011;30039;51.462;6.892;2022-10-16T17:16:15;6.10;;;1.92;;
44328;SDS011;30039;51.462;6.892;2022-10-16T17:19:01;5.88;;;2.58;;
44328;SDS011;30039;51.462;6.892;2022-10-16T17:21:49;3.15;;;1.95;;
44328;SDS011;30039;51.462;6.892;2022-10-16T17:24:35;4.43;;;2.53;;
44328;SDS011;30039;51.462;6.892;2022-10-16T17:27:20;5.57;;;2.58;;
44328;SDS011;30039;51.462;6.892;2022-10-16T17:30:07;5.55;;;2.22;;
44328;SDS011;30039;51.462;6.892;2022-10-16T17:32:52;5.85;;;2.60;;
44328;SDS011;30039;51.462;6.892;2022-10-16T17:35:39;4.75;;;2.35;;
44328;SDS011;30039;51.462;6.892;2022-10-16T17:38:25;3.25;;;2.15;;
44328;SDS011;30039;51.462;6.892;2022-10-16T17:41:12;4.60;;;2.65;;
44328;SDS011;30039;51.462;6.892;2022-10-16T17:43:58;4.78;;;2.97;;
44328;SDS011;30039;51.462;6.892;2022-10-16T17:46:45;5.60;;;2.60;;
44328;SDS011;30039;51.462;6.892;2022-10-16T17:49:31;4.80;;;2.85;;
44328;SDS011;30039;51.462;6.892;2022-10-16T17:52:17;7.32;;;3.05;;
44328;SDS011;30039;51.462;6.892;2022-10-16T17:55:03;4.60;;;2.53;;
44328;SDS011;30039;51.462;6.892;2022-10-16T17:57:48;5.50;;;3.05;;
44328;SDS011;30039;51.462;6.892;2022-10-16T18:00:36;7.22;;;2.80;;
44328;SDS011;30039;51.462;6.892;2022-10-16T18:03:22;6.28;;;2.22;;
44328;SDS011;30039;51.462;6.892;2022-10-16T18:06:09;6.53;;;2.80;;
44328;SDS011;30039;51.462;6.892;2022-10-16T18:08:55;8.82;;;3.65;;
44328;SDS011;30039;51.462;6.892;2022-10-16T18:11:41;5.57;;;2.70;;
44328;SDS011;30039;51.462;6.892;2022-10-16T18:14:28;4.90;;;2.67;;
44328;SDS011;30039;51.462;6.892;2022-10-16T18:17:14;5.90;;;2.67;;
44328;SDS011;30039;51.462;6.892;2022-10-16T18:20:04;5.20;;;2.83;;
44328;SDS011;30039;51.462;6.892;2022-10-16T18:22:50;10.70;;;2.80;;
44328;SDS011;30039;51.462;6.892;2022-10-16T18:25:36;5.85;;;2.70;;
44328;SDS011;30039;51.462;6.892;2022-10-16T18:28:22;6.85;;;2.90;;
44328;SDS011;30039;51.462;6.892;2022-10-16T18:31:10;5.70;;;3.00;;
44328;SDS011;30039;51.462;6.892;2022-10-16T18:33:57;5.97;;;3.03;;
44328;SDS011;30039;51.462;6.892;2022-10-16T18:36:43;7.40;;;3.10;;
44328;SDS011;30039;51.462;6.892;2022-10-16T18:39:29;6.43;;;3.45;;